長崎空港の過去48時間の天気

長崎空港 (Nagasaki)

現在時刻: 10/23 15:29 JST (10/23 06:29 UTC) 以下の時間は現地時間です。

過去48時間のMETAR気象情報
時間 風向 風速(m/s) 視程 気温(℃) 湿度(%) 気圧(hPa) 天気現象
23 15:16 北西 3 4000m 20 94 1013 しゅう雨 もや
23 15:00 西北西 5 8000m 21 88 1013 弱い雨
23 14:00 北西 5 10km以上 22 78 1012
23 13:00 不定 2 10km以上 23 73 1012
23 12:00 不定 1 10km以上 22 78 1013
23 11:00 不定 1 10km以上 22 78 1014
23 10:00 不定 1 10km以上 21 78 1014
23 09:00 不定 1 10km以上 21 83 1015
23 08:00 南南東 2 10km以上 20 88 1014
23 07:00 南南東 3 10km以上 19 94 1013
23 06:10 南東 2 10km以上 19 94 1013
22 06:10 南東 3 10km以上 17 94 1012
21 21:00 6 10km以上 19 78 1012
21 20:00 7 10km以上 19 78 1012
21 19:00 8 10km以上 20 73 1011
21 18:00 8 10km以上 21 73 1011
21 17:00 7 10km以上 23 69 1011
21 16:00 南南東 2 10km以上 25 54 1010
RJFU 230616Z 31006KT 4000 SHRA BR FEW025 SCT035 BKN045 20/19 Q1013 RMK 1CU025 3CU035 6SC045 A2993
RJFU 230600Z 30010KT 8000 -RA FEW035 BKN050 BKN080 21/19 Q1013
RJFU 230500Z 32009KT 9999 FEW035 BKN045 BKN080 22/18 Q1012
RJFU 230400Z VRB03KT 9999 FEW040 BKN050 BKN/// 23/18 Q1012
RJFU 230300Z VRB01KT 9999 FEW035 BKN050 BKN/// 22/18 Q1013
RJFU 230200Z VRB01KT 9999 FEW030 BKN045 BKN/// 22/18 Q1014
RJFU 230100Z VRB02KT 9999 FEW030 SCT045 BKN180 21/17 Q1014
RJFU 230000Z VRB02KT 9999 FEW025 BKN035 BKN050 21/18 Q1015
RJFU 222300Z 15003KT 110V170 9999 FEW030 BKN035 BKN050 20/18 Q1014
RJFU 222200Z 15006KT 9999 FEW030 BKN050 BKN/// 19/18 Q1013
RJFU 222110Z 13004KT 9999 FEW035 SCT045 BKN/// 19/18 Q1013 RMK 1CU035 3SC045 A2993
RJFU 212110Z 13006KT 9999 FEW040 BKN/// 17/16 Q1012 RMK 1SC040 A2990
RJFU 211200Z 01011KT 9999 FEW050 SCT/// 19/15 Q1012
RJFU 211100Z 35014KT 9999 FEW050 BKN/// 19/15 Q1012
RJFU 211000Z 36016KT 9999 FEW050 BKN/// 20/15 Q1011
RJFU 210900Z 01015KT 9999 FEW030 BKN/// 21/16 Q1011
RJFU 210800Z 36013KT 9999 FEW050 BKN/// 23/17 Q1011
RJFU 210700Z 15004KT 9999 FEW040 SCT/// 25/15 Q1010